createdAt,value
2017-09-21T00:02:47.904Z,86.10
2017-09-21T00:05:57.935Z,85.60
2017-09-21T00:09:08.706Z,85.20
2017-09-21T00:12:18.762Z,85.40
2017-09-21T00:15:28.652Z,86.60
2017-09-21T00:18:38.360Z,85.70
2017-09-21T00:21:48.656Z,85.90
2017-09-21T00:24:58.887Z,86.00
2017-09-21T00:28:08.686Z,86.10
2017-09-21T00:31:19.175Z,85.70
2017-09-21T00:34:29.232Z,85.50
2017-09-21T00:37:40.331Z,85.60
2017-09-21T00:40:50.094Z,85.60
2017-09-21T00:44:00.222Z,86.20
2017-09-21T00:47:10.319Z,85.20
2017-09-21T00:50:20.143Z,85.00
2017-09-21T00:53:31.259Z,85.30
2017-09-21T00:56:41.455Z,85.30
2017-09-21T00:59:51.661Z,85.20
2017-09-21T01:03:02.982Z,85.80
2017-09-21T01:06:13.375Z,85.80
2017-09-21T01:09:23.533Z,85.50
2017-09-21T01:12:33.699Z,86.30
2017-09-21T01:15:43.878Z,85.50
2017-09-21T01:18:54.510Z,84.70
2017-09-21T01:22:04.468Z,85.10
2017-09-21T01:25:14.368Z,86.20
2017-09-21T01:28:24.474Z,85.30
2017-09-21T01:31:33.827Z,85.50
2017-09-21T01:34:43.334Z,85.00
2017-09-21T01:37:53.580Z,84.90
2017-09-21T01:41:04.229Z,85.60
2017-09-21T01:44:14.179Z,85.00
2017-09-21T01:47:23.886Z,86.00
2017-09-21T01:50:34.414Z,85.30
2017-09-21T01:53:45.432Z,85.20
2017-09-21T01:56:56.720Z,85.50
2017-09-21T02:00:07.724Z,85.70
2017-09-21T02:03:18.208Z,85.50
2017-09-21T02:06:28.818Z,85.90
2017-09-21T02:09:39.578Z,85.90
2017-09-21T02:12:49.961Z,86.40
2017-09-21T02:16:00.688Z,86.10
2017-09-21T02:19:10.623Z,85.80
2017-09-21T02:22:21.154Z,85.70
2017-09-21T02:25:32.578Z,86.80
2017-09-21T02:28:43.156Z,86.80
2017-09-21T02:31:54.165Z,85.90
2017-09-21T02:35:04.385Z,85.90
2017-09-21T02:38:15.085Z,86.20
2017-09-21T02:41:25.822Z,86.10
2017-09-21T02:44:36.218Z,85.40
2017-09-21T02:47:46.450Z,86.10
2017-09-21T02:50:57.180Z,85.50
2017-09-21T02:54:07.844Z,85.50
2017-09-21T02:57:18.240Z,86.10
2017-09-21T03:00:28.442Z,87.60
2017-09-21T03:03:38.178Z,85.80
2017-09-21T03:06:48.161Z,88.10
2017-09-21T03:09:58.574Z,88.90
2017-09-21T03:13:08.728Z,87.70
2017-09-21T03:16:18.833Z,89.30
2017-09-21T03:19:28.812Z,88.30
2017-09-21T03:22:39.125Z,88.20
2017-09-21T03:25:49.714Z,88.40
2017-09-21T03:28:59.893Z,86.50
2017-09-21T03:32:10.282Z,86.90
2017-09-21T03:35:20.652Z,85.80
2017-09-21T03:38:30.929Z,85.20
2017-09-21T03:41:41.127Z,86.70
2017-09-21T03:44:51.546Z,89.10
2017-09-21T03:48:01.406Z,89.40
2017-09-21T03:51:12.086Z,89.60
2017-09-21T03:54:22.074Z,89.90
2017-09-21T03:57:33.557Z,89.10
2017-09-21T04:00:44.476Z,87.70
2017-09-21T04:03:54.972Z,87.70
2017-09-21T04:07:05.986Z,87.90
2017-09-21T04:10:16.493Z,87.80
2017-09-21T04:13:26.500Z,89.50
2017-09-21T04:16:42.716Z,89.10
2017-09-21T04:19:52.371Z,89.70
2017-09-21T04:23:03.136Z,88.60
2017-09-21T04:26:13.413Z,88.50
2017-09-21T04:29:23.536Z,87.60
2017-09-21T04:32:33.293Z,87.10
2017-09-21T04:35:43.473Z,87.00
2017-09-21T04:38:53.883Z,87.40
2017-09-21T04:42:03.734Z,88.10
2017-09-21T04:45:14.341Z,87.50
2017-09-21T04:48:24.437Z,87.50
2017-09-21T04:51:34.757Z,87.90
2017-09-21T04:54:44.855Z,87.60
2017-09-21T04:57:55.231Z,86.80
2017-09-21T05:01:05.724Z,87.10
2017-09-21T05:04:15.562Z,87.10
2017-09-21T05:07:25.936Z,86.90
2017-09-21T05:10:36.403Z,87.00
2017-09-21T05:13:46.952Z,86.10
2017-09-21T05:16:58.405Z,86.80
2017-09-21T05:20:08.013Z,86.80
2017-09-21T05:23:18.477Z,87.00
2017-09-21T05:26:28.331Z,87.20
2017-09-21T05:29:38.204Z,87.00
2017-09-21T05:32:48.722Z,88.20
2017-09-21T05:35:58.844Z,88.20
2017-09-21T05:39:09.204Z,89.50
2017-09-21T05:42:19.489Z,89.00
2017-09-21T05:45:29.337Z,88.50
2017-09-21T05:48:39.092Z,88.20
2017-09-21T05:51:49.160Z,89.50
2017-09-21T05:54:59.290Z,89.80
2017-09-21T05:58:10.005Z,90.30
2017-09-21T06:01:20.333Z,90.60
2017-09-21T06:04:30.593Z,90.70
2017-09-21T06:07:41.039Z,90.40
2017-09-21T06:10:51.086Z,90.70
2017-09-21T06:14:01.964Z,89.50
2017-09-21T06:17:12.364Z,89.50
2017-09-21T06:20:22.548Z,88.80
2017-09-21T06:23:33.493Z,90.10
2017-09-21T06:26:43.812Z,90.10
2017-09-21T06:29:53.997Z,89.80
2017-09-21T06:33:04.916Z,90.60
2017-09-21T06:36:15.432Z,90.60
2017-09-21T06:39:25.737Z,90.60
2017-09-21T06:42:35.623Z,90.50
2017-09-21T06:45:46.151Z,90.10
2017-09-21T06:48:57.094Z,89.00
2017-09-21T06:52:07.697Z,88.90
2017-09-21T06:55:17.739Z,89.20
2017-09-21T06:58:27.860Z,89.00
2017-09-21T07:01:37.834Z,89.50
2017-09-21T07:04:48.142Z,88.30
2017-09-21T07:07:58.884Z,88.60
2017-09-21T07:11:09.201Z,88.60
2017-09-21T07:14:19.271Z,87.50
2017-09-21T07:17:29.882Z,88.40
2017-09-21T07:20:40.587Z,87.90
2017-09-21T07:23:50.364Z,88.30
2017-09-21T07:27:00.841Z,87.40
2017-09-21T07:30:11.384Z,86.10
2017-09-21T07:33:21.008Z,86.10
2017-09-21T07:36:31.083Z,87.80
2017-09-21T07:39:40.876Z,87.90
2017-09-21T07:42:50.707Z,87.70
2017-09-21T07:46:01.057Z,87.20
2017-09-21T07:49:11.398Z,87.50
2017-09-21T07:52:21.836Z,87.90
2017-09-21T07:55:32.300Z,86.70
2017-09-21T07:58:42.639Z,86.50
2017-09-21T08:01:53.277Z,86.80
2017-09-21T08:05:02.975Z,86.80
2017-09-21T08:08:12.857Z,86.70
2017-09-21T08:11:22.902Z,86.10
2017-09-21T08:14:32.753Z,86.10
2017-09-21T08:17:42.856Z,86.00
2017-09-21T08:20:52.890Z,86.80
2017-09-21T08:24:03.461Z,85.30
2017-09-21T08:27:14.029Z,85.20
2017-09-21T08:30:24.177Z,86.10
2017-09-21T08:33:34.113Z,86.20
2017-09-21T08:36:44.400Z,85.20
2017-09-21T08:39:54.582Z,85.10
2017-09-21T08:43:04.803Z,85.20
2017-09-21T08:46:15.526Z,85.70
2017-09-21T08:49:26.189Z,85.80
2017-09-21T08:52:36.312Z,84.80
2017-09-21T08:55:46.583Z,84.70
2017-09-21T08:58:56.798Z,84.90
2017-09-21T09:02:07.432Z,84.30
2017-09-21T09:05:17.124Z,85.20
2017-09-21T09:08:27.136Z,84.90
2017-09-21T09:11:37.598Z,85.00
2017-09-21T09:14:47.870Z,85.00
2017-09-21T09:17:58.220Z,84.20
2017-09-21T09:21:08.721Z,84.10
2017-09-21T09:24:18.601Z,84.90
2017-09-21T09:27:28.684Z,84.40
2017-09-21T09:30:38.979Z,83.70
2017-09-21T09:33:49.431Z,81.90
2017-09-21T09:36:59.909Z,81.00
2017-09-21T09:40:10.110Z,79.60
2017-09-21T09:43:20.207Z,79.70
2017-09-21T09:46:31.280Z,79.00
2017-09-21T09:49:42.031Z,79.00
2017-09-21T09:52:52.768Z,79.20
2017-09-21T09:56:03.534Z,78.70
2017-09-21T09:59:13.689Z,78.80
2017-09-21T10:02:24.315Z,77.90
2017-09-21T10:05:34.870Z,78.50
2017-09-21T10:08:45.074Z,78.40
2017-09-21T10:11:54.902Z,76.60
2017-09-21T10:15:05.038Z,75.70
2017-09-21T10:18:15.351Z,75.30
2017-09-21T10:21:26.065Z,77.10
2017-09-21T10:24:36.190Z,74.80
2017-09-21T10:27:46.519Z,74.00
2017-09-21T10:30:56.927Z,74.30
2017-09-21T10:34:07.082Z,75.50
2017-09-21T10:37:17.688Z,74.10
2017-09-21T10:40:28.128Z,74.00
2017-09-21T10:43:39.600Z,73.70
2017-09-21T10:46:50.069Z,73.70
2017-09-21T10:50:00.264Z,73.40
2017-09-21T10:53:10.123Z,73.60
2017-09-21T10:56:20.364Z,73.00
2017-09-21T10:59:31.045Z,72.90
2017-09-21T11:02:41.017Z,73.70
2017-09-21T11:05:51.811Z,72.10
2017-09-21T11:09:01.685Z,70.80
2017-09-21T11:12:11.956Z,72.20
2017-09-21T11:15:22.545Z,72.80
2017-09-21T11:18:33.345Z,72.00
2017-09-21T11:21:43.576Z,72.00
2017-09-21T11:24:54.139Z,70.60
2017-09-21T11:28:05.325Z,69.50
2017-09-21T11:31:16.419Z,70.30
2017-09-21T11:34:26.684Z,70.30
2017-09-21T11:37:37.540Z,68.80
2017-09-21T11:40:48.485Z,68.70
2017-09-21T11:43:58.510Z,70.10
2017-09-21T11:47:08.879Z,70.10
2017-09-21T11:50:18.948Z,70.30
2017-09-21T11:53:28.675Z,69.50
2017-09-21T11:56:39.040Z,69.00
2017-09-21T11:59:49.039Z,71.10
2017-09-21T12:02:58.948Z,69.80
2017-09-21T12:06:09.417Z,68.50
2017-09-21T12:09:19.957Z,69.40
2017-09-21T12:12:30.229Z,67.50
2017-09-21T12:15:40.340Z,68.20
2017-09-21T12:18:50.286Z,67.20
2017-09-21T12:22:00.240Z,69.50
2017-09-21T12:25:10.359Z,66.50
2017-09-21T12:28:21.049Z,68.30
2017-09-21T12:31:30.836Z,67.80
2017-09-21T12:34:41.388Z,67.50
2017-09-21T12:37:51.275Z,67.10
2017-09-21T12:41:01.383Z,66.50
2017-09-21T12:44:11.807Z,65.70
2017-09-21T12:47:21.901Z,65.50
2017-09-21T12:50:32.191Z,66.70
2017-09-21T12:53:42.607Z,65.60
2017-09-21T12:56:53.281Z,66.70
2017-09-21T13:00:03.676Z,66.80
2017-09-21T13:03:13.943Z,65.00
2017-09-21T13:06:24.343Z,64.90
2017-09-21T13:09:34.683Z,62.60
2017-09-21T13:12:44.847Z,64.60
2017-09-21T13:15:55.410Z,61.40
2017-09-21T13:19:05.466Z,62.40
2017-09-21T13:22:16.226Z,63.80
2017-09-21T13:25:27.006Z,64.70
2017-09-21T13:28:36.923Z,61.50
2017-09-21T13:31:47.230Z,61.90
2017-09-21T13:34:57.641Z,61.20
2017-09-21T13:38:07.749Z,62.50
2017-09-21T13:41:17.919Z,62.60
2017-09-21T13:44:29.532Z,63.60
2017-09-21T13:47:39.817Z,61.50
2017-09-21T13:50:50.302Z,61.00
2017-09-21T13:54:00.188Z,62.50
2017-09-21T13:57:09.962Z,62.20
2017-09-21T14:00:20.226Z,62.80
2017-09-21T14:03:30.422Z,62.80
2017-09-21T14:06:40.998Z,62.60
2017-09-21T14:09:52.607Z,61.60
2017-09-21T14:13:04.204Z,61.60
2017-09-21T14:16:14.938Z,61.90
2017-09-21T14:19:26.769Z,60.90
2017-09-21T14:22:38.102Z,61.10
2017-09-21T14:25:48.777Z,62.20
2017-09-21T14:28:59.755Z,61.30
2017-09-21T14:32:10.466Z,62.80
2017-09-21T14:35:20.770Z,62.70
2017-09-21T14:38:31.383Z,62.30
2017-09-21T14:41:41.558Z,62.80
2017-09-21T14:44:52.178Z,62.60
2017-09-21T14:48:04.789Z,62.60
2017-09-21T14:51:15.436Z,61.90
2017-09-21T14:54:25.372Z,62.20
2017-09-21T14:57:35.207Z,62.90
2017-09-21T15:00:45.419Z,62.50
2017-09-21T15:03:55.386Z,62.40
2017-09-21T15:07:06.049Z,62.90
2017-09-21T15:10:16.504Z,62.40
2017-09-21T15:13:26.495Z,62.60
2017-09-21T15:16:36.544Z,63.60
2017-09-21T15:19:46.635Z,63.30
2017-09-21T15:22:57.087Z,64.20
2017-09-21T15:26:07.333Z,63.50
2017-09-21T15:29:18.335Z,64.30
2017-09-21T15:32:28.646Z,64.20
2017-09-21T15:35:39.071Z,62.50
2017-09-21T15:38:49.388Z,64.20
2017-09-21T15:42:00.269Z,63.10
2017-09-21T15:45:11.270Z,63.10
2017-09-21T15:48:21.048Z,63.30
2017-09-21T15:51:35.388Z,64.30
2017-09-21T15:54:46.769Z,65.70
2017-09-21T16:01:24.429Z,65.90
2017-09-21T16:04:35.170Z,66.30
2017-09-21T16:07:45.340Z,66.30
2017-09-21T16:10:55.005Z,67.50
2017-09-21T16:14:05.475Z,67.90
2017-09-21T16:17:15.362Z,69.20
2017-09-21T16:20:26.715Z,69.60
2017-09-21T16:23:37.610Z,70.70
2017-09-21T16:26:47.648Z,71.80
2017-09-21T16:29:57.572Z,71.20
2017-09-21T16:33:08.685Z,71.70
2017-09-21T16:36:18.994Z,71.60
2017-09-21T16:39:28.960Z,72.30
2017-09-21T16:42:40.411Z,71.90
2017-09-21T16:45:50.895Z,72.40
2017-09-21T16:49:01.469Z,71.80
2017-09-21T16:52:11.589Z,73.00
2017-09-21T16:55:21.840Z,72.40
2017-09-21T16:58:31.963Z,73.30
2017-09-21T17:01:42.993Z,73.50
2017-09-21T17:04:53.821Z,73.20
2017-09-21T17:08:04.642Z,73.50
2017-09-21T17:11:15.978Z,73.80
2017-09-21T17:14:26.603Z,74.60
2017-09-21T17:17:37.987Z,75.00
2017-09-21T17:20:47.829Z,75.00
2017-09-21T17:23:58.223Z,74.80
2017-09-21T17:27:08.625Z,75.40
2017-09-21T17:30:19.914Z,74.80
2017-09-21T17:33:30.053Z,75.50
2017-09-21T17:36:40.206Z,75.60
2017-09-21T17:39:50.304Z,76.10
2017-09-21T17:43:00.442Z,75.80
2017-09-21T17:46:10.890Z,75.80
2017-09-21T17:49:20.985Z,75.90
2017-09-21T17:52:30.956Z,75.80
2017-09-21T17:55:43.967Z,76.10
2017-09-21T18:02:20.188Z,77.20
2017-09-21T18:05:30.648Z,76.90
2017-09-21T18:08:41.566Z,77.90
2017-09-21T18:11:51.726Z,77.70
2017-09-21T18:15:01.886Z,78.20
2017-09-21T18:18:12.576Z,77.70
2017-09-21T18:21:22.559Z,77.50
2017-09-21T18:24:32.688Z,77.90
2017-09-21T18:27:43.390Z,77.90
2017-09-21T18:30:54.505Z,77.90
2017-09-21T18:34:04.781Z,77.80
2017-09-21T18:37:15.076Z,78.70
2017-09-21T18:40:25.262Z,79.40
2017-09-21T18:43:35.051Z,78.80
2017-09-21T18:46:45.439Z,78.50
2017-09-21T18:49:56.361Z,78.30
2017-09-21T18:53:06.608Z,78.20
2017-09-21T18:56:16.791Z,78.10
2017-09-21T18:59:27.621Z,81.00
2017-09-21T19:02:37.938Z,81.00
2017-09-21T19:05:48.068Z,80.10
2017-09-21T19:08:58.358Z,79.30
2017-09-21T19:12:08.566Z,80.50
2017-09-21T19:15:19.585Z,80.00
2017-09-21T19:18:31.840Z,80.10
2017-09-21T19:21:41.836Z,80.10
2017-09-21T19:24:51.780Z,79.50
2017-09-21T19:28:02.290Z,79.70
2017-09-21T19:31:15.766Z,80.50
2017-09-21T19:34:27.950Z,80.40
2017-09-21T19:37:38.318Z,80.40
2017-09-21T19:40:49.637Z,80.30
2017-09-21T19:44:00.300Z,80.30
2017-09-21T19:47:10.757Z,80.40
2017-09-21T19:50:21.896Z,80.40
2017-09-21T19:53:31.923Z,80.50
2017-09-21T19:56:42.061Z,80.40
2017-09-21T19:59:52.142Z,80.20
2017-09-21T20:03:02.420Z,80.50
2017-09-21T20:06:12.465Z,81.40
2017-09-21T20:09:23.105Z,80.40
2017-09-21T20:12:33.797Z,80.50
2017-09-21T20:15:44.921Z,80.80
2017-09-21T20:18:55.696Z,80.70
2017-09-21T20:22:06.345Z,80.60
2017-09-21T20:25:16.572Z,80.40
2017-09-21T20:28:27.873Z,80.90
2017-09-21T20:31:37.804Z,80.90
2017-09-21T20:34:48.583Z,82.10
2017-09-21T20:37:58.547Z,81.20
2017-09-21T20:41:09.354Z,82.10
2017-09-21T20:44:20.805Z,80.80
2017-09-21T20:47:31.087Z,82.10
2017-09-21T20:50:41.767Z,83.40
2017-09-21T20:53:52.052Z,83.40
2017-09-21T20:57:02.418Z,82.20
2017-09-21T21:00:12.780Z,82.10
2017-09-21T21:03:23.209Z,81.80
2017-09-21T21:06:33.587Z,81.80
2017-09-21T21:09:43.504Z,82.50
2017-09-21T21:12:54.396Z,81.70
2017-09-21T21:16:05.839Z,82.30
2017-09-21T21:19:16.399Z,81.50
2017-09-21T21:22:26.840Z,83.00
2017-09-21T21:25:36.999Z,83.20
2017-09-21T21:28:47.241Z,82.30
2017-09-21T21:31:57.683Z,82.40
2017-09-21T21:35:08.316Z,82.40
2017-09-21T21:38:18.446Z,82.20
2017-09-21T21:41:28.798Z,81.80
2017-09-21T21:44:39.502Z,81.70
2017-09-21T21:47:49.959Z,82.30
2017-09-21T21:51:00.645Z,81.60
2017-09-21T21:54:11.324Z,82.30
2017-09-21T21:57:23.037Z,81.80
2017-09-21T22:00:33.437Z,81.80
2017-09-21T22:03:43.672Z,83.10
2017-09-21T22:06:54.054Z,82.90
2017-09-21T22:10:04.223Z,82.90
2017-09-21T22:13:14.627Z,82.90
2017-09-21T22:16:24.953Z,82.70
2017-09-21T22:19:36.029Z,82.30
2017-09-21T22:22:46.166Z,82.20
2017-09-21T22:25:57.077Z,82.30
2017-09-21T22:29:07.162Z,82.30
2017-09-21T22:32:17.577Z,82.30
2017-09-21T22:35:27.563Z,82.70
2017-09-21T22:38:38.463Z,83.90
2017-09-21T22:41:48.622Z,83.90
2017-09-21T22:44:59.538Z,82.70
2017-09-21T22:48:10.390Z,82.60
2017-09-21T22:51:20.548Z,83.00
2017-09-21T22:54:30.483Z,82.60
2017-09-21T22:57:40.696Z,82.50
2017-09-21T23:00:52.172Z,83.60
2017-09-21T23:04:02.135Z,83.60
2017-09-21T23:07:12.436Z,82.70
2017-09-21T23:10:23.840Z,82.60
2017-09-21T23:13:34.573Z,83.10
2017-09-21T23:16:45.269Z,84.40
2017-09-21T23:19:55.672Z,83.30
2017-09-21T23:23:05.722Z,83.30
2017-09-21T23:26:15.726Z,83.10
2017-09-21T23:29:26.262Z,83.00
2017-09-21T23:32:36.651Z,83.40
2017-09-21T23:35:46.890Z,83.90
2017-09-21T23:38:57.125Z,84.00
2017-09-21T23:42:08.447Z,83.30
2017-09-21T23:45:18.782Z,83.30
2017-09-21T23:48:29.095Z,83.10
2017-09-21T23:51:39.509Z,82.90
2017-09-21T23:54:49.875Z,83.40
2017-09-21T23:58:00.647Z,83.70
